Time;durP1;ratioP1;P1;durP2;ratioP2;P2;SDS_P1;SDS_P2;PMS_P1;PMS_P2;Temp;Humidity;BMP_temperature;BMP_pressure;BME280_temperature;BME280_humidity;BME280_pressure;Samples;Min_cycle;Max_cycle;Signal;HPM_P1;HPM_P2
2022/02/04 00:06:00;;;;;;;4.77;2.13;;;;;;;0.15;83.90;97439.47;6276302;28;20268;-72
2022/02/04 00:22:57;;;;;;;4.57;1.90;;;;;;;0.20;84.15;97422.78;6272052;28;20740;-72
2022/02/04 00:29:20;;;;;;;2.70;1.97;;;;;;;0.21;83.92;97414.09;6259595;28;20226;-73
2022/02/04 00:32:24;;;;;;;2.53;1.80;;;;;;;0.21;83.92;97416.69;6282508;28;20230;-73
2022/02/04 00:35:48;;;;;;;3.83;2.03;;;;;;;0.18;84.05;97415.97;6263810;28;20621;-72
2022/02/04 00:38:54;;;;;;;2.20;1.40;;;;;;;0.16;84.03;97412.59;6282664;28;20237;-73
2022/02/04 00:42:04;;;;;;;3.40;1.90;;;;;;;0.16;83.76;97410.00;6256053;28;20257;-73
2022/02/04 00:45:18;;;;;;;4.00;1.80;;;;;;;0.14;83.87;97411.81;6257229;28;20227;-72
2022/02/04 00:48:48;;;;;;;2.47;1.57;;;;;;;0.13;84.03;97405.78;6257893;28;20608;-73
2022/02/04 00:52:06;;;;;;;3.73;1.70;;;;;;;0.16;83.99;97408.25;6258806;28;20254;-72
2022/02/04 00:55:31;;;;;;;3.23;1.90;;;;;;;0.17;84.10;97409.94;6255848;28;20588;-72
2022/02/04 01:25:56;;;;;;;2.27;1.43;;;;;;;-0.01;84.37;97379.63;6232173;28;20235;-73
2022/02/04 01:28:49;;;;;;;3.67;1.50;;;;;;;-0.24;84.91;97388.38;6256859;28;20258;-73
2022/02/04 01:31:52;;;;;;;3.50;1.70;;;;;;;-0.33;84.48;97388.75;6256932;28;20227;-73
2022/02/04 01:34:54;;;;;;;1.83;1.30;;;;;;;-0.41;84.84;97393.44;6259698;28;20606;-73
2022/02/04 01:37:57;;;;;;;1.67;1.27;;;;;;;-0.46;85.35;97379.78;6257783;28;20706;-72
2022/02/04 01:40:59;;;;;;;2.50;1.20;;;;;;;-0.52;85.07;97388.69;6274816;28;20601;-73
2022/02/04 01:44:02;;;;;;;1.90;1.30;;;;;;;-0.58;85.36;97394.09;6282517;28;20234;-72
2022/02/04 01:47:05;;;;;;;2.00;1.30;;;;;;;-0.65;85.28;97386.63;6260642;28;20221;-72
2022/02/04 01:50:08;;;;;;;2.13;1.20;;;;;;;-0.69;84.87;97392.84;6278211;28;20319;-72
2022/02/04 01:53:10;;;;;;;2.13;1.33;;;;;;;-0.71;85.05;97392.06;6260446;28;20229;-73
2022/02/04 01:56:14;;;;;;;3.37;1.07;;;;;;;-0.73;85.01;97384.38;6277312;28;20459;-72
2022/02/04 01:59:16;;;;;;;2.37;1.40;;;;;;;-0.73;84.59;97389.53;6279457;28;20614;-72
2022/02/04 02:02:18;;;;;;;4.60;1.53;;;;;;;-0.75;84.83;97386.16;6279376;28;20231;-72
2022/02/04 02:05:20;;;;;;;1.67;1.33;;;;;;;-0.76;84.59;97377.53;6277545;28;20234;-72
2022/02/04 02:08:23;;;;;;;2.27;1.20;;;;;;;-0.77;84.63;97383.63;6278511;28;20218;-72
2022/02/04 02:11:25;;;;;;;1.53;1.10;;;;;;;-0.79;84.96;97375.06;6259476;28;20230;-72
2022/02/04 02:14:29;;;;;;;1.83;1.23;;;;;;;-0.79;84.74;97374.22;6277588;28;20226;-72
2022/02/04 02:47:26;;;;;;;1.70;1.10;;;;;;;-0.70;85.17;97367.84;6255998;28;20227;-72
2022/02/04 03:03:23;;;;;;;3.17;1.17;;;;;;;-0.68;85.46;97348.72;6238611;28;20234;-72
2022/02/04 03:06:25;;;;;;;2.33;1.00;;;;;;;-0.61;85.36;97344.16;6275668;28;20233;-72
2022/02/04 03:09:27;;;;;;;2.40;1.40;;;;;;;-0.56;85.36;97352.56;6276616;28;20656;-72
2022/02/04 03:12:31;;;;;;;5.33;1.80;;;;;;;-0.50;85.66;97349.75;6276471;28;20226;-72
2022/02/04 03:15:35;;;;;;;3.53;1.13;;;;;;;-0.45;85.46;97343.44;6258828;28;20618;-71
2022/02/04 03:18:41;;;;;;;2.03;1.17;;;;;;;-0.41;85.37;97345.03;6276050;28;20226;-72
2022/02/04 03:21:46;;;;;;;3.20;1.10;;;;;;;-0.34;85.87;97334.38;6276332;28;20219;-72
2022/02/04 03:24:56;;;;;;;1.40;0.93;;;;;;;-0.27;85.63;97340.97;6275554;28;20665;-73
2022/02/04 03:27:59;;;;;;;1.40;1.10;;;;;;;-0.20;85.63;97332.84;6275664;28;20231;-73
2022/02/04 03:31:02;;;;;;;3.80;1.10;;;;;;;-0.16;85.52;97329.25;6276627;28;20709;-72
2022/02/04 03:34:04;;;;;;;1.27;1.00;;;;;;;-0.11;86.02;97329.91;6276024;28;20628;-72
2022/02/04 03:37:06;;;;;;;1.80;0.90;;;;;;;-0.07;85.75;97331.44;6276242;28;20583;-72
2022/02/04 03:40:09;;;;;;;1.90;1.20;;;;;;;0.01;85.35;97336.28;6250160;28;20599;-72
2022/02/04 03:43:11;;;;;;;1.00;0.90;;;;;;;0.09;85.69;97328.19;6258256;28;20246;-73
2022/02/04 03:46:13;;;;;;;3.60;1.37;;;;;;;0.13;85.76;97347.88;6246917;28;20692;-71
2022/02/04 03:49:15;;;;;;;1.87;1.13;;;;;;;0.16;85.56;97339.97;6249543;28;20237;-72
2022/02/04 03:52:18;;;;;;;1.87;1.30;;;;;;;0.17;85.70;97341.66;6251822;28;20238;-72
2022/02/04 03:55:20;;;;;;;4.23;1.93;;;;;;;0.17;85.04;97352.88;6249009;28;20231;-72
2022/02/04 03:58:22;;;;;;;4.97;3.07;;;;;;;0.16;84.98;97350.34;6252630;28;20231;-72
2022/02/04 04:01:25;;;;;;;4.23;2.83;;;;;;;0.20;85.23;97362.28;6250943;28;20231;-72
2022/02/04 04:04:31;;;;;;;5.47;3.03;;;;;;;0.22;84.86;97355.25;6251744;28;21051;-72
2022/02/04 04:07:35;;;;;;;6.97;2.67;;;;;;;0.26;84.82;97351.63;6266492;28;21008;-71
2022/02/04 04:10:40;;;;;;;6.60;3.43;;;;;;;0.27;84.09;97363.69;6249151;28;20242;-73
2022/02/04 04:13:42;;;;;;;5.23;3.07;;;;;;;0.27;84.38;97364.53;6251495;28;22168;-73
2022/02/04 04:16:47;;;;;;;6.37;3.40;;;;;;;0.23;84.12;97367.31;6250874;28;20233;-73
2022/02/04 04:19:49;;;;;;;4.53;3.20;;;;;;;0.21;84.09;97366.53;6252242;28;20623;-72
2022/02/04 04:22:52;;;;;;;5.20;2.87;;;;;;;0.17;83.62;97365.84;6251255;28;20603;-73
2022/02/04 04:25:54;;;;;;;6.43;3.20;;;;;;;0.10;83.60;97359.22;6252458;28;20474;-72
2022/02/04 04:28:56;;;;;;;6.30;3.37;;;;;;;0.03;83.69;97350.03;6250254;28;20604;-72
2022/02/04 04:31:58;;;;;;;6.53;3.03;;;;;;;0.02;83.86;97365.66;6249755;28;20227;-72
2022/02/04 04:35:00;;;;;;;5.57;3.20;;;;;;;0.03;83.68;97363.00;6241116;28;20596;-72
2022/02/04 04:38:34;;;;;;;7.03;4.07;;;;;;;0.07;83.87;97376.69;6246863;28;20737;-72
2022/02/04 05:31:35;;;;;;;3.27;2.10;;;;;;;2.15;82.08;97385.75;6256030;28;20236;-73
2022/02/04 05:34:39;;;;;;;4.33;2.10;;;;;;;2.16;82.50;97387.44;6258629;28;20232;-73
2022/02/04 05:37:45;;;;;;;2.20;1.60;;;;;;;2.75;82.89;97372.19;6257973;28;20266;-73
2022/02/04 05:40:50;;;;;;;2.77;1.70;;;;;;;3.27;81.26;97376.22;6273911;28;20246;-73
2022/02/04 05:43:54;;;;;;;5.10;2.97;;;;;;;3.21;76.13;97378.31;6281330;28;20229;-73
2022/02/04 05:47:03;;;;;;;3.97;2.57;;;;;;;2.77;78.69;97389.44;6282688;28;20232;-73
2022/02/04 05:53:33;;;;;;;3.83;2.80;;;;;;;2.51;79.26;97390.81;6289584;28;20327;-72
2022/02/04 05:56:45;;;;;;;3.07;2.20;;;;;;;2.65;80.92;97402.25;6285154;28;20243;-73
2022/02/04 06:22:32;;;;;;;11.90;5.30;;;;;;;1.51;80.24;97434.94;6276454;28;20234;-73
2022/02/04 06:25:34;;;;;;;8.43;4.20;;;;;;;1.62;80.67;97448.28;6278892;28;20245;-73
2022/02/04 06:28:38;;;;;;;7.67;4.37;;;;;;;1.74;80.49;97449.44;6279036;28;20234;-73
2022/02/04 06:31:41;;;;;;;8.10;4.50;;;;;;;1.94;81.63;97446.69;6260999;28;20234;-72
2022/02/04 06:34:44;;;;;;;6.53;3.97;;;;;;;2.65;82.54;97452.59;6278604;28;20282;-73
2022/02/04 06:37:46;;;;;;;7.93;4.50;;;;;;;3.41;81.83;97461.50;6279383;28;20238;-72
2022/02/04 06:40:48;;;;;;;7.60;4.20;;;;;;;3.80;79.27;97468.03;6278898;28;20232;-73
2022/02/04 06:43:50;;;;;;;5.00;3.63;;;;;;;3.42;78.61;97462.34;6278196;28;20588;-73
2022/02/04 06:46:52;;;;;;;4.50;3.73;;;;;;;3.32;79.84;97468.06;6260566;28;20252;-73
2022/02/04 06:49:55;;;;;;;7.30;3.83;;;;;;;3.16;79.37;97480.28;6261942;28;20235;-73
2022/02/04 06:52:57;;;;;;;10.20;6.60;;;;;;;3.61;80.81;97471.69;6278489;28;20244;-72
2022/02/04 06:55:59;;;;;;;7.90;6.03;;;;;;;3.82;79.95;97474.84;6278888;28;20241;-73
2022/02/04 06:59:02;;;;;;;8.47;5.93;;;;;;;3.90;79.72;97477.88;6277386;28;20282;-73
2022/02/04 07:02:04;;;;;;;7.43;5.77;;;;;;;3.96;80.17;97481.91;6277437;28;20578;-72
2022/02/04 07:05:13;;;;;;;6.83;5.37;;;;;;;4.02;79.60;97471.94;6277878;28;20600;-73
2022/02/04 07:08:22;;;;;;;9.30;6.60;;;;;;;4.11;79.50;97470.56;6281116;28;20666;-72
2022/02/04 07:21:46;;;;;;;9.20;6.83;;;;;;;4.68;78.71;97461.09;6248044;28;20226;-73
2022/02/04 07:24:53;;;;;;;7.73;6.37;;;;;;;4.80;77.74;97465.56;6265346;28;20229;-73
2022/02/04 07:27:55;;;;;;;7.40;6.27;;;;;;;4.98;77.70;97458.41;6261254;28;20761;-73
2022/02/04 07:31:15;;;;;;;7.20;5.87;;;;;;;5.14;76.39;97466.97;6278349;28;20325;-73
2022/02/04 07:41:01;;;;;;;7.33;6.30;;;;;;;5.78;73.87;97480.38;6276433;28;20242;-73
2022/02/04 07:44:03;;;;;;;7.50;5.70;;;;;;;5.95;72.54;97468.84;6258923;28;20718;-73
2022/02/04 07:47:06;;;;;;;7.10;5.97;;;;;;;6.09;72.49;97477.47;6259000;28;20241;-72
2022/02/04 07:50:08;;;;;;;5.87;5.27;;;;;;;6.18;71.45;97469.03;6281122;28;20710;-73
2022/02/04 07:53:10;;;;;;;7.80;5.47;;;;;;;6.27;70.99;97478.06;6256869;28;20234;-73
2022/02/04 07:56:19;;;;;;;6.47;5.30;;;;;;;6.33;70.51;97477.63;6277335;28;20594;-72
2022/02/04 07:59:21;;;;;;;5.23;4.73;;;;;;;6.37;70.74;97484.38;6276591;28;20581;-74
2022/02/04 08:02:23;;;;;;;5.73;4.83;;;;;;;6.33;69.24;97480.25;6276151;28;20238;-74
2022/02/04 08:05:29;;;;;;;4.90;4.40;;;;;;;6.34;69.50;97486.34;6276655;28;20222;-73
2022/02/04 08:09:44;;;;;;;5.87;5.00;;;;;;;6.28;68.84;97483.22;6277734;28;20284;-73
2022/02/04 08:12:38;;;;;;;6.33;4.97;;;;;;;6.18;68.76;97489.16;6265461;28;20242;-73
2022/02/04 08:38:03;;;;;;;6.80;5.57;;;;;;;6.33;68.78;97498.59;6276752;28;20238;-73
2022/02/04 09:00:28;;;;;;;6.53;5.30;;;;;;;6.87;67.73;97504.56;6277344;28;20227;-72
2022/02/04 09:03:47;;;;;;;5.33;4.83;;;;;;;6.96;67.37;97503.09;6280415;28;20231;-73
2022/02/04 09:07:00;;;;;;;6.80;6.10;;;;;;;6.94;67.84;97510.22;6263202;28;20514;-73
2022/02/04 09:10:09;;;;;;;6.47;5.63;;;;;;;6.90;68.41;97527.09;6272089;28;20227;-74
2022/02/04 09:19:48;;;;;;;9.10;6.27;;;;;;;6.71;68.94;97524.03;6279557;28;20716;-73
2022/02/04 09:22:50;;;;;;;10.30;6.07;;;;;;;6.64;69.03;97528.88;6262640;28;20238;-73
2022/02/04 09:25:53;;;;;;;5.47;4.97;;;;;;;6.55;69.47;97532.09;6261583;28;20556;-73
2022/02/04 09:28:55;;;;;;;6.90;5.63;;;;;;;6.41;70.13;97540.03;6261419;28;20242;-72
2022/02/04 09:31:57;;;;;;;7.37;5.87;;;;;;;6.34;70.33;97542.22;6279698;28;20714;-73
2022/02/04 09:35:00;;;;;;;7.20;5.60;;;;;;;6.36;69.49;97553.44;6278088;28;20733;-73
2022/02/04 09:38:07;;;;;;;6.03;5.43;;;;;;;6.45;69.43;97555.47;6278561;28;20257;-73
2022/02/04 09:41:09;;;;;;;5.97;4.67;;;;;;;6.65;68.82;97560.25;6279538;28;20748;-73
2022/02/04 09:44:12;;;;;;;6.07;5.47;;;;;;;6.76;67.63;97556.91;6278516;28;20650;-73
2022/02/04 09:47:26;;;;;;;5.77;4.30;;;;;;;6.85;67.32;97565.94;6278870;28;20237;-73
2022/02/04 09:50:47;;;;;;;7.23;4.87;;;;;;;6.90;66.89;97554.16;6278556;28;20712;-72
2022/02/04 10:14:51;;;;;;;5.43;4.23;;;;;;;7.83;64.44;97563.44;6260556;28;20276;-73
2022/02/04 10:18:11;;;;;;;5.43;4.13;;;;;;;8.01;63.16;97556.03;6278699;28;20597;-72
2022/02/04 10:21:13;;;;;;;4.87;4.37;;;;;;;8.06;63.22;97557.41;6278094;28;20227;-73
2022/02/04 10:24:24;;;;;;;4.83;3.83;;;;;;;8.25;62.84;97564.78;6278238;28;20206;-73
2022/02/04 10:27:31;;;;;;;4.57;4.10;;;;;;;8.42;62.78;97567.06;6259590;28;20230;-72
2022/02/04 10:30:33;;;;;;;5.10;4.30;;;;;;;8.27;62.48;97567.31;6278780;28;20599;-72
2022/02/04 10:34:19;;;;;;;4.50;4.10;;;;;;;8.37;62.26;97561.31;6276550;28;20224;-73
2022/02/04 10:37:28;;;;;;;5.00;4.50;;;;;;;8.35;62.19;97560.56;6252730;28;20237;-73
2022/02/04 10:44:05;;;;;;;5.17;3.87;;;;;;;8.28;61.18;97558.47;6277341;28;20314;-73
2022/02/04 10:47:08;;;;;;;5.37;4.83;;;;;;;8.15;62.04;97562.00;6277383;28;20378;-73
2022/02/04 10:54:08;;;;;;;5.47;4.50;;;;;;;7.98;62.41;97572.03;6257623;28;20538;-73
2022/02/04 11:00:42;;;;;;;7.60;4.80;;;;;;;7.78;63.01;97573.47;6277841;28;20226;-73
2022/02/04 11:03:52;;;;;;;5.30;4.60;;;;;;;7.78;62.82;97570.84;6276206;28;20236;-73
2022/02/04 11:48:33;;;;;;;5.17;4.63;;;;;;;9.29;58.35;97502.53;6274049;28;20240;-73
2022/02/04 11:51:48;;;;;;;5.63;4.20;;;;;;;10.02;57.50;97488.78;6274781;28;20229;-72
2022/02/04 11:54:54;;;;;;;6.10;4.50;;;;;;;10.33;55.51;97493.28;6275116;28;20291;-73
2022/02/04 11:58:00;;;;;;;5.80;5.03;;;;;;;10.82;55.11;97483.91;6275924;28;20253;-73
2022/02/04 12:01:05;;;;;;;4.67;4.20;;;;;;;10.83;54.77;97485.56;6257616;28;20234;-73
2022/02/04 12:04:20;;;;;;;5.20;4.03;;;;;;;10.80;54.86;97479.72;6275856;28;20241;-73
2022/02/04 12:07:37;;;;;;;5.73;4.63;;;;;;;10.82;53.96;97475.16;6275148;28;20708;-73
2022/02/04 12:10:45;;;;;;;4.80;4.03;;;;;;;10.63;53.32;97474.06;6256734;28;20322;-73
2022/02/04 12:14:11;;;;;;;4.87;4.43;;;;;;;10.63;54.45;97465.31;6257448;28;20253;-73
2022/02/04 12:17:13;;;;;;;4.67;4.17;;;;;;;10.56;54.52;97461.50;6274692;28;20296;-73
2022/02/04 12:20:15;;;;;;;4.67;3.80;;;;;;;10.47;54.60;97460.50;6258035;28;20230;-73
2022/02/04 12:23:28;;;;;;;3.93;3.53;;;;;;;10.55;54.22;97460.69;6275214;28;20230;-72
2022/02/04 12:26:36;;;;;;;4.80;4.30;;;;;;;10.34;54.78;97450.09;6279820;28;20238;-73
2022/02/04 12:29:38;;;;;;;5.13;4.13;;;;;;;10.31;54.35;97455.63;6284300;28;20241;-72
2022/02/04 12:32:40;;;;;;;5.00;4.50;;;;;;;10.15;55.70;97463.09;6280154;28;20245;-73
2022/02/04 12:35:42;;;;;;;4.77;4.07;;;;;;;9.92;55.54;97458.88;6283708;28;20251;-72
2022/02/04 12:39:01;;;;;;;4.30;3.90;;;;;;;9.91;55.90;97454.53;6265481;28;20643;-73
2022/02/04 12:42:05;;;;;;;4.53;4.13;;;;;;;9.81;56.51;97457.09;6220175;28;20228;-74
2022/02/04 12:45:13;;;;;;;4.97;3.63;;;;;;;9.83;56.07;97464.88;6225167;28;20212;-72
2022/02/04 12:48:19;;;;;;;5.10;3.97;;;;;;;9.70;55.97;97458.91;6216526;28;20242;-72
2022/02/04 12:52:06;;;;;;;4.17;3.50;;;;;;;9.64;55.70;97444.44;6224886;28;20539;-73
2022/02/04 12:55:20;;;;;;;3.90;3.60;;;;;;;9.54;54.99;97444.34;6223251;28;20302;-74
2022/02/04 12:58:42;;;;;;;5.50;3.67;;;;;;;9.64;55.07;97441.81;6210949;28;20232;-72
2022/02/04 13:02:06;;;;;;;3.43;3.13;;;;;;;10.00;53.93;97437.97;6218723;28;20236;-73
2022/02/04 13:08:42;;;;;;;4.50;3.50;;;;;;;9.95;54.01;97429.63;6225858;28;20235;-72
2022/02/04 13:11:44;;;;;;;3.20;2.90;;;;;;;9.93;54.28;97432.38;6238689;28;20199;-73
2022/02/04 13:14:48;;;;;;;3.83;3.37;;;;;;;9.68;54.42;97429.25;6243433;28;20253;-73
2022/02/04 13:17:51;;;;;;;3.37;2.90;;;;;;;10.14;54.30;97424.50;6235736;28;20195;-73
2022/02/04 13:20:57;;;;;;;3.70;3.20;;;;;;;10.96;52.00;97433.41;6228504;28;20231;-72
2022/02/04 13:24:04;;;;;;;3.83;3.43;;;;;;;13.12;46.75;97405.84;6262784;28;20299;-73
2022/02/04 13:27:12;;;;;;;4.00;3.60;;;;;;;14.80;41.20;97399.91;6233867;28;20232;-72
2022/02/04 13:30:24;;;;;;;3.47;3.17;;;;;;;16.38;39.17;97389.31;6223933;28;20213;-73
2022/02/04 13:33:29;;;;;;;5.90;3.47;;;;;;;16.02;38.67;97399.44;6206090;28;20300;-73
2022/02/04 13:36:37;;;;;;;4.70;3.60;;;;;;;17.54;35.79;97390.59;6225754;28;20224;-71
2022/02/04 13:39:59;;;;;;;3.90;3.50;;;;;;;18.30;33.83;97387.16;6223960;28;20227;-74
2022/02/04 13:43:28;;;;;;;4.80;3.67;;;;;;;17.42;34.89;97391.97;6273401;28;20266;-73
2022/02/04 13:47:03;;;;;;;3.37;3.07;;;;;;;16.45;36.88;97395.66;6278900;28;20227;-73
2022/02/04 13:53:37;;;;;;;4.20;3.47;;;;;;;12.78;44.69;97405.50;6260169;28;20619;-73
2022/02/04 13:56:49;;;;;;;4.37;3.77;;;;;;;11.75;47.28;97409.78;6278166;28;20254;-72
2022/02/04 14:00:04;;;;;;;3.83;3.43;;;;;;;10.95;49.12;97410.63;6279143;28;20261;-72
2022/02/04 14:03:43;;;;;;;3.50;3.20;;;;;;;10.58;51.04;97412.91;6277835;28;20333;-73
2022/02/04 14:06:46;;;;;;;4.10;3.60;;;;;;;10.59;50.55;97406.66;6276405;28;20608;-73
2022/02/04 14:09:58;;;;;;;4.23;3.43;;;;;;;10.53;50.60;97395.78;6277535;28;20616;-72
2022/02/04 14:13:05;;;;;;;4.50;4.00;;;;;;;10.10;51.38;97399.34;6277337;28;20268;-73
2022/02/04 14:16:08;;;;;;;4.83;3.90;;;;;;;9.62;52.03;97398.94;6276074;28;20238;-73
2022/02/04 14:19:10;;;;;;;3.30;3.00;;;;;;;9.54;52.29;97394.28;6278057;28;20222;-72
2022/02/04 14:22:12;;;;;;;3.80;3.40;;;;;;;9.49;52.94;97395.59;6277318;28;20238;-72
2022/02/04 14:25:14;;;;;;;4.33;3.53;;;;;;;9.19;54.43;97389.19;6282670;28;20297;-72
2022/02/04 14:28:21;;;;;;;4.43;3.97;;;;;;;9.08;54.72;97391.03;6280038;28;20287;-72
2022/02/04 14:49:16;;;;;;;4.77;3.07;;;;;;;8.84;54.92;97399.88;6276877;28;20617;-72
2022/02/04 14:54:32;;;;;;;4.30;3.90;;;;;;;8.01;57.13;97386.06;6276627;28;20230;-73
2022/02/04 15:01:32;;;;;;;3.87;3.33;;;;;;;7.70;58.09;97389.28;6278292;28;20248;-72
2022/02/04 15:04:37;;;;;;;4.40;4.00;;;;;;;7.54;58.88;97394.81;6256322;28;20604;-72
2022/02/04 15:07:43;;;;;;;4.73;4.27;;;;;;;7.44;59.56;97396.44;6279578;28;20710;-71
2022/02/04 15:10:47;;;;;;;5.47;4.70;;;;;;;7.41;59.31;97379.13;6275884;28;20237;-72
2022/02/04 15:13:51;;;;;;;4.53;3.90;;;;;;;7.34;59.56;97363.94;6277032;28;20260;-72
2022/02/04 15:16:53;;;;;;;4.90;4.33;;;;;;;7.29;59.56;97373.91;6276236;28;20228;-72
2022/02/04 15:19:55;;;;;;;6.00;4.20;;;;;;;7.15;60.55;97360.94;6276984;28;20272;-72
2022/02/04 15:22:57;;;;;;;4.97;3.87;;;;;;;6.99;61.87;97359.41;6275600;28;20231;-72
2022/02/04 15:26:00;;;;;;;5.00;4.17;;;;;;;6.94;61.31;97358.91;6275882;28;20328;-72
2022/02/04 15:29:07;;;;;;;5.27;4.20;;;;;;;6.90;61.98;97356.59;6275312;28;20610;-72
2022/02/04 15:32:09;;;;;;;5.43;4.73;;;;;;;6.86;61.86;97355.16;6275182;28;20607;-72
2022/02/04 15:35:11;;;;;;;3.93;3.53;;;;;;;6.82;62.49;97358.94;6258629;28;20602;-72
2022/02/04 15:38:13;;;;;;;6.70;3.50;;;;;;;6.66;62.76;97362.63;6275487;28;20610;-72
2022/02/04 15:41:15;;;;;;;3.60;3.17;;;;;;;6.50;62.96;97363.78;6275297;28;20241;-73
2022/02/04 15:45:01;;;;;;;5.20;3.60;;;;;;;6.40;64.05;97365.34;6275983;28;20233;-72
2022/02/04 15:48:00;;;;;;;4.00;3.33;;;;;;;6.39;63.78;97361.09;6273982;28;20724;-72
2022/02/04 15:51:19;;;;;;;4.47;3.63;;;;;;;6.20;64.32;97361.47;6256812;28;20243;-73
2022/02/04 16:07:10;;;;;;;6.63;3.00;;;;;;;5.46;66.53;97377.75;6275184;28;20812;-71
2022/02/04 16:13:37;;;;;;;3.20;2.70;;;;;;;5.13;68.52;97393.81;6257445;28;20396;-72
2022/02/04 16:16:44;;;;;;;3.03;2.57;;;;;;;4.98;68.58;97397.41;6258428;28;20237;-71
2022/02/04 16:20:04;;;;;;;4.17;3.03;;;;;;;4.92;69.00;97392.53;6241905;28;20227;-73
2022/02/04 16:23:11;;;;;;;4.00;3.00;;;;;;;4.92;69.67;97398.59;6256309;28;20230;-73
2022/02/04 16:29:16;;;;;;;3.53;2.67;;;;;;;4.83;70.42;97383.50;6256702;28;20234;-73
2022/02/04 16:32:19;;;;;;;5.40;3.90;;;;;;;4.83;69.95;97386.09;6276160;28;20226;-73
2022/02/04 16:35:25;;;;;;;4.50;2.67;;;;;;;4.87;70.01;97386.78;6274938;28;20229;-72
2022/02/04 16:38:27;;;;;;;3.20;2.60;;;;;;;4.89;69.75;97390.94;6280317;28;20264;-72
2022/02/04 16:41:45;;;;;;;3.37;3.03;;;;;;;4.92;71.09;97392.53;6250478;28;20245;-72
2022/02/04 16:44:48;;;;;;;6.03;4.50;;;;;;;5.05;70.59;97407.38;6250644;28;20223;-73
2022/02/04 16:47:55;;;;;;;4.13;3.10;;;;;;;5.16;70.08;97412.78;6249611;28;20281;-73
2022/02/04 16:50:57;;;;;;;3.10;2.60;;;;;;;5.07;70.26;97399.44;6250699;28;20741;-73
2022/02/04 16:53:59;;;;;;;4.40;2.77;;;;;;;4.97;70.90;97400.97;6252055;28;20235;-72
2022/02/04 16:57:02;;;;;;;3.33;2.73;;;;;;;4.90;70.78;97403.09;6250117;28;21025;-73
2022/02/04 17:00:19;;;;;;;4.20;2.50;;;;;;;4.83;70.97;97399.19;6250737;28;20226;-73
2022/02/04 17:03:22;;;;;;;3.07;2.27;;;;;;;4.71;71.53;97392.09;6250664;28;20227;-73
2022/02/04 17:06:26;;;;;;;4.20;2.70;;;;;;;4.58;72.48;97389.41;6250943;28;20227;-73
2022/02/04 17:09:34;;;;;;;2.90;2.30;;;;;;;4.50;73.21;97396.00;6250889;28;20733;-72
2022/02/04 17:12:42;;;;;;;3.60;2.90;;;;;;;4.42;72.68;97401.69;6253744;28;20471;-73
2022/02/04 17:15:50;;;;;;;3.50;2.70;;;;;;;4.23;74.29;97398.50;6258078;28;20606;-73
2022/02/04 17:18:55;;;;;;;4.87;2.70;;;;;;;4.00;74.67;97395.47;6260215;28;20223;-73
2022/02/04 17:22:03;;;;;;;2.97;2.67;;;;;;;3.83;75.26;97392.19;6254922;28;20227;-73
2022/02/04 17:25:09;;;;;;;4.50;2.70;;;;;;;3.68;75.60;97386.09;6255401;28;20230;-73
2022/02/04 17:28:12;;;;;;;4.80;3.03;;;;;;;3.51;75.97;97396.63;6254847;28;20227;-72
2022/02/04 17:31:14;;;;;;;4.80;2.93;;;;;;;3.33;75.93;97399.34;6255486;28;20225;-72
2022/02/04 17:34:16;;;;;;;4.80;3.20;;;;;;;3.18;76.15;97389.78;6253080;28;20234;-73
2022/02/04 17:37:18;;;;;;;3.60;2.80;;;;;;;2.96;75.88;97397.09;6254825;28;20237;-73
2022/02/04 17:40:21;;;;;;;4.57;3.10;;;;;;;2.80;76.35;97406.66;6264540;28;20382;-72
2022/02/04 17:43:25;;;;;;;4.40;3.23;;;;;;;2.66;76.65;97404.78;6277869;28;20224;-73
2022/02/04 17:46:27;;;;;;;3.87;2.83;;;;;;;2.49;76.85;97400.50;6261077;28;20242;-73
2022/02/04 17:49:39;;;;;;;8.43;3.27;;;;;;;2.33;76.89;97402.19;6279259;28;20235;-72
2022/02/04 17:52:58;;;;;;;4.47;3.27;;;;;;;2.16;77.25;97397.84;6277488;28;20326;-72
2022/02/04 17:56:04;;;;;;;4.00;3.43;;;;;;;2.03;77.84;97399.41;6278674;28;20239;-67
2022/02/04 18:02:36;;;;;;;4.70;3.70;;;;;;;1.82;78.56;97397.88;6278177;28;20610;-67
2022/02/04 18:05:55;;;;;;;4.57;4.17;;;;;;;1.70;78.54;97393.28;6260125;28;20693;-67
2022/02/04 18:08:57;;;;;;;8.07;3.80;;;;;;;1.57;78.69;97392.22;6279125;28;20268;-67
2022/02/04 18:12:00;;;;;;;6.07;3.60;;;;;;;1.47;78.66;97394.41;6277500;28;20238;-67
2022/02/04 18:15:04;;;;;;;5.73;3.47;;;;;;;1.42;78.94;97393.78;6277958;28;20229;-68
2022/02/04 18:18:06;;;;;;;5.73;3.43;;;;;;;1.32;79.34;97390.78;6277729;28;20234;-68
2022/02/04 18:21:08;;;;;;;4.40;3.70;;;;;;;1.22;79.73;97386.09;6277476;28;20612;-67
2022/02/04 18:24:11;;;;;;;9.00;4.83;;;;;;;1.14;79.99;97378.69;6277643;28;20224;-67
2022/02/04 18:27:13;;;;;;;6.40;3.83;;;;;;;1.11;79.69;97378.81;6277696;28;20211;-67
2022/02/04 18:30:17;;;;;;;5.70;3.50;;;;;;;1.14;79.92;97380.44;6278850;28;20720;-67
2022/02/04 18:33:19;;;;;;;5.33;3.70;;;;;;;1.05;79.94;97366.13;6277672;28;20288;-68
2022/02/04 18:36:22;;;;;;;5.70;3.83;;;;;;;0.98;80.58;97373.38;6277196;28;20246;-68
2022/02/04 18:40:06;;;;;;;5.10;3.53;;;;;;;1.00;80.62;97362.88;6277197;28;20249;-68
2022/02/04 18:43:21;;;;;;;4.27;3.60;;;;;;;1.01;81.45;97368.00;6267537;28;20275;-67
2022/02/04 18:49:37;;;;;;;6.73;3.97;;;;;;;1.00;81.63;97368.09;6277106;28;20234;-69
2022/02/04 18:56:33;;;;;;;4.93;4.10;;;;;;;0.84;81.22;97364.53;6236359;28;20242;-69
2022/02/04 18:59:46;;;;;;;8.17;3.60;;;;;;;0.71;81.13;97365.09;6276890;28;20708;-69
2022/02/04 19:02:52;;;;;;;6.10;4.60;;;;;;;0.63;81.68;97364.59;6242158;28;20249;-69
2022/02/04 19:09:09;;;;;;;7.27;4.93;;;;;;;0.45;82.44;97377.59;6277131;28;20238;-69
2022/02/04 19:12:15;;;;;;;8.67;5.33;;;;;;;0.38;82.69;97376.19;6258804;28;20213;-69
2022/02/04 19:18:56;;;;;;;6.63;4.80;;;;;;;0.28;82.71;97360.19;6275553;28;20206;-68
2022/02/04 19:21:54;;;;;;;7.07;5.10;;;;;;;0.23;82.92;97350.00;6260947;28;20226;-73
2022/02/04 19:25:00;;;;;;;6.30;5.20;;;;;;;0.22;82.56;97350.06;6276437;28;20227;-72
2022/02/04 19:28:04;;;;;;;8.50;4.77;;;;;;;0.17;83.03;97345.09;6263749;28;20226;-72
2022/02/04 19:31:06;;;;;;;7.60;5.37;;;;;;;0.17;83.07;97354.63;6275592;28;20595;-73
2022/02/04 19:34:08;;;;;;;6.87;4.53;;;;;;;0.15;83.51;97340.88;6274549;28;20674;-72
2022/02/04 19:37:10;;;;;;;6.63;4.90;;;;;;;0.13;83.64;97340.94;6271663;28;20226;-72
2022/02/04 20:39:53;;;;;;;13.40;6.87;;;;;;;-0.42;86.47;97322.59;4264205;28;20242;-72
2022/02/04 20:42:56;;;;;;;8.53;7.00;;;;;;;-0.42;86.09;97345.06;6257142;28;20698;-73
2022/02/04 20:46:00;;;;;;;10.43;7.50;;;;;;;-0.44;86.59;97344.28;6260551;28;20316;-73
2022/02/04 20:49:07;;;;;;;10.80;7.03;;;;;;;-0.44;86.66;97344.28;6261976;28;20230;-73
2022/02/04 20:52:12;;;;;;;9.13;6.53;;;;;;;-0.55;86.41;97357.69;6280009;28;20231;-72
2022/02/04 20:55:15;;;;;;;10.93;6.53;;;;;;;-0.64;86.35;97354.63;6279394;28;20603;-72
2022/02/04 20:58:17;;;;;;;9.57;7.10;;;;;;;-0.73;86.57;97358.44;6280135;28;20227;-72
2022/02/04 21:01:22;;;;;;;8.37;5.90;;;;;;;-0.75;86.44;97361.09;6278444;28;20234;-73
2022/02/04 21:04:25;;;;;;;9.63;7.27;;;;;;;-0.80;86.40;97362.22;6279663;28;20836;-72
2022/02/04 21:14:16;;;;;;;11.90;7.40;;;;;;;-0.98;86.43;97365.50;6278639;28;20313;-72
2022/02/04 21:17:21;;;;;;;8.93;6.53;;;;;;;-1.04;86.67;97368.34;6279137;28;20230;-72
2022/02/04 21:20:23;;;;;;;11.20;6.63;;;;;;;-1.06;86.62;97381.34;6279747;28;20257;-72
2022/02/04 21:23:26;;;;;;;10.23;6.53;;;;;;;-1.10;86.88;97379.81;6280336;28;20777;-71
2022/02/04 21:26:29;;;;;;;9.60;6.70;;;;;;;-1.14;86.55;97381.66;6278329;28;20234;-72
2022/02/04 21:29:33;;;;;;;7.43;5.97;;;;;;;-1.15;86.68;97397.25;6269705;28;20239;-72
2022/02/04 21:32:40;;;;;;;9.17;6.60;;;;;;;-1.17;86.48;97397.28;6278914;28;20234;-71
2022/02/04 21:39:03;;;;;;;10.43;7.00;;;;;;;-1.19;87.11;97411.19;6278361;28;20722;-72
2022/02/04 21:42:10;;;;;;;13.10;7.30;;;;;;;-1.11;87.60;97414.34;6261657;28;20222;-71
2022/02/04 21:45:12;;;;;;;11.17;6.93;;;;;;;-1.06;87.02;97419.34;6278822;28;20245;-72
2022/02/04 21:48:16;;;;;;;11.03;7.70;;;;;;;-0.94;87.03;97424.06;6264338;28;20214;-72
2022/02/04 21:51:19;;;;;;;9.40;7.40;;;;;;;-0.77;86.97;97430.25;6264640;28;20215;-72
2022/02/04 21:54:22;;;;;;;11.07;7.10;;;;;;;-0.62;86.99;97431.41;6281232;28;20245;-72
2022/02/04 21:57:24;;;;;;;12.83;7.23;;;;;;;-0.48;86.81;97430.84;6276583;28;20230;-72
2022/02/04 22:00:32;;;;;;;11.53;7.80;;;;;;;-0.38;86.62;97425.22;6279256;28;20231;-72
2022/02/04 22:03:35;;;;;;;10.47;7.37;;;;;;;-0.25;86.96;97424.72;6276913;28;20577;-72
2022/02/04 22:06:38;;;;;;;13.90;7.77;;;;;;;-0.14;87.57;97425.13;6278882;28;20218;-72
2022/02/04 22:10:00;;;;;;;10.80;7.83;;;;;;;-0.04;86.88;97403.94;6277939;28;20226;-72